This is the latest recevied weather packets stored in our database for station/object YO4ISC-13. If no packets are shown the sender has not sent any weather packets the latest 1 day(s).
| Time | Temp. | Humidity | Pressure | Rain* | Wind** | Luminosity | Snow |
|---|---|---|---|---|---|---|---|
| 1778101802 | 10° C | 95% | 1019 hPa | - | - | - | - |
| 1778100602 | 9.44° C | 94% | 1019 hPa | - | - | - | - |
| 1778097602 | 10.56° C | 94% | 1019 hPa | - | - | - | - |
| 1778093402 | 11.11° C | 91% | 1019 hPa | - | - | - | - |
| 1778089202 | 11.67° C | 89% | 1018 hPa | - | - | - | - |
| 1778080202 | 13.89° C | 79% | 1018 hPa | - | - | - | - |
| 1778079002 | 13.89° C | 77% | 1018 hPa | - | - | - | - |
| 1778077802 | 13.89° C | 76% | 1018 hPa | - | - | - | - |
| 1778075402 | 14.44° C | 74% | 1018 hPa | - | - | - | - |
| 1778060402 | 14.44° C | 67% | 1019 hPa | - | - | - | - |
| 1778059202 | 15° C | 72% | 1019 hPa | - | - | - | - |
| 1778055602 | 13.89° C | 75% | 1019 hPa | - | - | - | - |
| 1778055002 | 13.89° C | 79% | 1019 hPa | - | - | - | - |
| 1778053802 | 13.89° C | 79% | 1019 hPa | - | - | - | - |
| 1778050201 | 13.33° C | 76% | 1018 hPa | - | - | - | - |
| 1778049602 | 13.89° C | 75% | 1018 hPa | - | - | - | - |
| 1778046002 | 13.33° C | 67% | 1018 hPa | - | - | - | - |
| 1778043002 | 11.67° C | 67% | 1018 hPa | - | - | - | - |
| 1778042403 | 11.11° C | 66% | 1018 hPa | - | - | - | - |
| 1778041802 | 10.56° C | 67% | 1018 hPa | - | - | - | - |
| 1778040602 | 10.56° C | 62% | 1017 hPa | - | - | - | - |
| 1778038802 | 6.11° C | 83% | 1017 hPa | - | - | - | - |
| 1778037602 | 4.44° C | 85% | 1017 hPa | - | - | - | - |
| 1778033402 | 6.11° C | 79% | 1017 hPa | - | - | - | - |
| 1778032202 | 6.67° C | 77% | 1017 hPa | - | - | - | - |
* Rain since midnight (hover to see other rain measurements)
** Current wind speed in m/s (hover to see current wind gust speed)